Time;durP1;ratioP1;P1;durP2;ratioP2;P2;SDS_P1;SDS_P2;PMS_P1;PMS_P2;Temp;Humidity;BMP_temperature;BMP_pressure;BME280_temperature;BME280_humidity;BME280_pressure;Samples;Min_cycle;Max_cycle;Signal;HPM_P1;HPM_P2
2022/03/24 00:02:06;;;;;;;77.40;50.93;;;14.70;73.10;;;;;;5070689;28;20410;-69
2022/03/24 00:04:32;;;;;;;76.72;49.10;;;14.60;72.90;;;;;;5086333;28;20409;-69
2022/03/24 00:06:58;;;;;;;77.10;49.73;;;14.60;73.50;;;;;;5087345;28;20423;-68
2022/03/24 00:09:24;;;;;;;76.00;49.72;;;14.50;73.80;;;;;;5070990;28;20416;-69
2022/03/24 00:11:49;;;;;;;77.90;49.47;;;14.50;74.00;;;;;;5088428;28;20827;-69
2022/03/24 00:14:17;;;;;;;78.73;50.53;;;14.50;74.20;;;;;;5090472;28;20414;-69
2022/03/24 00:16:43;;;;;;;77.47;48.85;;;14.40;74.20;;;;;;5071226;28;20417;-69
2022/03/24 00:19:09;;;;;;;73.75;49.95;;;14.40;74.20;;;;;;5087461;28;20410;-68
2022/03/24 00:21:35;;;;;;;78.55;49.88;;;14.40;74.60;;;;;;5088183;28;20886;-68
2022/03/24 00:24:01;;;;;;;79.25;50.60;;;14.40;74.80;;;;;;5086716;28;20422;-68
2022/03/24 00:26:26;;;;;;;77.93;50.17;;;14.30;74.80;;;;;;5089015;28;20807;-69
2022/03/24 00:28:52;;;;;;;87.78;48.72;;;14.30;75.20;;;;;;5072468;28;20189;-70
2022/03/24 00:31:18;;;;;;;80.63;47.72;;;13.90;75.80;;;;;;5073017;28;20665;-70
2022/03/24 00:33:43;;;;;;;89.38;48.90;;;13.60;76.50;;;;;;5088722;28;20188;-69
2022/03/24 00:36:10;;;;;;;77.43;46.15;;;13.30;77.00;;;;;;5073291;28;20251;-68
2022/03/24 00:38:37;;;;;;;76.72;45.60;;;13.20;77.50;;;;;;5086822;28;20682;-67
2022/03/24 00:41:03;;;;;;;81.63;49.30;;;13.10;77.90;;;;;;5091719;28;20276;-68
2022/03/24 00:43:30;;;;;;;82.32;46.20;;;12.90;78.10;;;;;;5089776;28;20584;-70
2022/03/24 00:45:55;;;;;;;87.47;48.40;;;12.80;78.40;;;;;;5072813;28;20209;-68
2022/03/24 00:48:23;;;;;;;82.55;47.28;;;12.70;78.80;;;;;;5087961;28;20197;-67
2022/03/24 00:50:49;;;;;;;80.13;47.22;;;12.70;79.10;;;;;;5072798;28;20182;-67
2022/03/24 00:53:14;;;;;;;82.80;47.40;;;12.60;79.40;;;;;;5071350;28;20208;-67
2022/03/24 00:55:41;;;;;;;89.47;48.08;;;12.50;79.60;;;;;;5073098;28;20689;-67
2022/03/24 00:58:07;;;;;;;83.10;48.60;;;12.50;79.80;;;;;;5071563;28;20209;-69
2022/03/24 01:00:33;;;;;;;83.13;48.17;;;12.50;80.10;;;;;;5071546;28;20216;-68
2022/03/24 01:02:58;;;;;;;78.18;46.53;;;12.40;80.40;;;;;;5071241;28;20188;-68
2022/03/24 01:05:28;;;;;;;81.22;47.08;;;12.30;80.60;;;;;;5072854;28;20295;-67
2022/03/24 01:07:55;;;;;;;80.13;46.75;;;12.30;80.80;;;;;;5086445;28;20193;-68
2022/03/24 01:10:23;;;;;;;83.68;47.35;;;12.20;81.00;;;;;;5089687;28;20658;-67
2022/03/24 01:12:50;;;;;;;79.43;47.80;;;12.20;81.30;;;;;;5089546;28;20210;-70
2022/03/24 01:15:19;;;;;;;81.78;46.72;;;12.10;81.40;;;;;;5054841;28;20237;-67
2022/03/24 01:17:47;;;;;;;76.68;45.65;;;12.10;81.60;;;;;;5088913;28;20654;-69
2022/03/24 01:20:14;;;;;;;80.90;46.33;;;12.00;81.80;;;;;;5070675;28;20669;-69
2022/03/24 01:22:41;;;;;;;81.53;47.70;;;12.00;81.90;;;;;;5066410;28;20219;-67
2022/03/24 01:25:07;;;;;;;78.55;50.00;;;12.00;81.90;;;;;;5068859;28;20415;-68
2022/03/24 01:27:34;;;;;;;81.85;51.33;;;12.40;83.00;;;;;;5066344;28;20407;-66
2022/03/24 01:30:00;;;;;;;81.63;50.08;;;12.70;82.50;;;;;;5068437;28;20406;-68
2022/03/24 01:32:27;;;;;;;84.43;51.28;;;12.80;82.30;;;;;;5066900;28;20411;-67
2022/03/24 01:34:53;;;;;;;80.55;50.85;;;12.90;82.10;;;;;;5066863;28;20472;-68
2022/03/24 01:37:23;;;;;;;80.18;50.80;;;12.90;82.00;;;;;;5066806;28;20407;-67
2022/03/24 01:39:49;;;;;;;76.20;49.93;;;12.90;81.90;;;;;;5068952;28;20410;-68
2022/03/24 01:42:16;;;;;;;80.32;49.97;;;12.90;82.10;;;;;;5063862;28;20767;-67
2022/03/24 01:44:46;;;;;;;75.90;49.85;;;13.00;81.90;;;;;;5066708;28;20414;-67
2022/03/24 01:47:12;;;;;;;79.93;50.70;;;13.00;81.50;;;;;;5064570;28;20403;-65
2022/03/24 01:49:44;;;;;;;80.25;50.75;;;13.00;81.50;;;;;;5065581;28;20888;-67
2022/03/24 01:52:12;;;;;;;84.20;52.35;;;12.90;81.70;;;;;;5066110;28;20491;-66
2022/03/24 01:54:41;;;;;;;77.95;50.88;;;13.00;81.80;;;;;;5067614;28;20404;-65
2022/03/24 01:57:10;;;;;;;76.07;49.15;;;12.90;81.80;;;;;;5049162;28;20460;-67
2022/03/24 01:59:40;;;;;;;75.72;49.22;;;12.90;81.50;;;;;;5065991;28;20399;-66
2022/03/24 02:02:08;;;;;;;79.07;49.05;;;12.90;81.50;;;;;;5068688;28;20399;-67
2022/03/24 02:04:35;;;;;;;79.22;49.88;;;12.90;81.60;;;;;;5065694;28;20403;-67
2022/03/24 02:07:05;;;;;;;79.28;48.90;;;12.90;81.50;;;;;;5067276;28;20419;-68
2022/03/24 02:09:33;;;;;;;80.18;48.97;;;12.90;81.70;;;;;;5064474;28;20572;-69
2022/03/24 02:12:00;;;;;;;79.18;48.28;;;12.80;81.60;;;;;;5066491;28;20541;-67
2022/03/24 02:14:29;;;;;;;74.85;47.80;;;12.80;82.10;;;;;;5064110;28;20500;-69
2022/03/24 02:16:55;;;;;;;77.22;48.70;;;12.70;81.90;;;;;;5077540;28;20768;-68
2022/03/24 02:19:23;;;;;;;74.05;46.35;;;12.80;82.00;;;;;;5064495;28;20411;-67
2022/03/24 02:21:51;;;;;;;73.32;47.35;;;12.70;82.20;;;;;;5065690;28;20478;-69
2022/03/24 02:24:19;;;;;;;73.43;48.53;;;12.70;82.20;;;;;;5084405;28;20418;-69
2022/03/24 02:26:46;;;;;;;81.18;48.58;;;12.70;82.60;;;;;;5085290;28;20948;-69
2022/03/24 02:29:14;;;;;;;74.50;48.00;;;12.60;82.70;;;;;;5084710;28;20412;-70
2022/03/24 02:31:49;;;;;;;76.13;48.40;;;12.60;82.70;;;;;;5085882;28;20599;-68
2022/03/24 02:37:02;;;;;;;75.72;47.92;;;12.50;83.10;;;;;;5087733;28;20774;-69
2022/03/24 02:39:31;;;;;;;76.22;48.70;;;12.50;83.50;;;;;;5084591;28;20413;-69
2022/03/24 02:42:00;;;;;;;74.53;48.07;;;12.40;83.40;;;;;;5069870;28;20402;-69
2022/03/24 02:44:28;;;;;;;80.68;48.90;;;12.40;83.60;;;;;;5084664;28;20445;-70
2022/03/24 02:46:55;;;;;;;74.63;48.25;;;12.40;83.70;;;;;;5087151;28;20398;-68
2022/03/24 02:49:23;;;;;;;74.28;48.22;;;12.40;83.90;;;;;;5083517;28;20422;-67
2022/03/24 02:51:50;;;;;;;77.63;48.67;;;12.40;84.30;;;;;;5085664;28;20409;-67
2022/03/24 02:54:17;;;;;;;76.43;47.90;;;12.30;84.20;;;;;;5086791;28;20424;-68
2022/03/24 02:56:43;;;;;;;74.63;46.97;;;12.30;84.30;;;;;;5087811;28;20448;-68
2022/03/24 02:59:10;;;;;;;72.68;48.08;;;12.30;84.40;;;;;;5086469;28;20429;-66
2022/03/24 03:01:41;;;;;;;76.07;47.88;;;12.30;84.40;;;;;;5068791;28;20413;-67
2022/03/24 03:04:07;;;;;;;76.13;48.00;;;12.20;84.10;;;;;;5070330;28;20413;-66
2022/03/24 03:06:33;;;;;;;73.22;48.92;;;12.20;84.30;;;;;;5068989;28;20409;-66
2022/03/24 03:09:02;;;;;;;74.43;48.38;;;12.20;84.70;;;;;;5088492;28;20398;-67
2022/03/24 03:11:31;;;;;;;72.47;48.85;;;12.20;84.80;;;;;;5084468;28;20406;-69
2022/03/24 03:13:58;;;;;;;77.72;49.63;;;12.20;84.90;;;;;;5086599;28;20417;-64
2022/03/24 03:16:25;;;;;;;77.60;49.97;;;12.10;84.90;;;;;;5068221;28;21011;-66
2022/03/24 03:18:51;;;;;;;75.05;48.42;;;12.10;84.80;;;;;;5069758;28;20444;-67
2022/03/24 03:21:17;;;;;;;80.75;48.88;;;12.10;84.80;;;;;;5081482;28;20406;-68
2022/03/24 03:23:44;;;;;;;79.33;48.50;;;12.10;84.50;;;;;;5086084;28;20418;-66
2022/03/24 03:26:12;;;;;;;78.13;49.05;;;12.00;84.70;;;;;;5050983;28;20405;-66
2022/03/24 03:28:38;;;;;;;76.43;47.22;;;12.10;84.70;;;;;;5087067;28;20402;-67
2022/03/24 03:31:05;;;;;;;76.00;48.90;;;12.00;84.40;;;;;;5086454;28;20401;-66
2022/03/24 03:33:36;;;;;;;72.65;47.60;;;12.00;84.20;;;;;;5083929;28;20473;-67
2022/03/24 03:36:03;;;;;;;80.22;50.28;;;11.90;84.30;;;;;;5084252;28;20418;-68
2022/03/24 03:38:29;;;;;;;75.33;50.10;;;11.90;84.80;;;;;;5087671;28;20405;-69
2022/03/24 03:40:55;;;;;;;76.93;48.50;;;11.90;84.80;;;;;;5084463;28;20408;-68
2022/03/24 03:43:21;;;;;;;81.13;49.57;;;11.80;84.80;;;;;;5086947;28;20390;-69
2022/03/24 03:45:47;;;;;;;74.47;48.17;;;11.80;84.70;;;;;;5087227;28;20405;-69
2022/03/24 03:48:13;;;;;;;78.60;49.13;;;11.80;84.70;;;;;;5084121;28;20409;-69
2022/03/24 03:50:42;;;;;;;75.73;48.93;;;11.70;84.70;;;;;;5083680;28;20418;-67
2022/03/24 03:53:08;;;;;;;72.72;48.95;;;11.70;84.70;;;;;;5085555;28;20437;-67
2022/03/24 03:55:35;;;;;;;77.38;48.85;;;11.70;84.80;;;;;;5087048;28;20409;-66
2022/03/24 03:58:02;;;;;;;79.68;49.35;;;11.60;84.70;;;;;;5068964;28;20401;-67
2022/03/24 04:03:12;;;;;;;78.32;49.08;;;11.60;85.70;;;;;;5088768;28;20739;-67
2022/03/24 04:05:38;;;;;;;78.47;48.83;;;11.60;85.80;;;;;;5089052;28;20917;-67
2022/03/24 04:08:04;;;;;;;71.90;48.27;;;11.60;85.80;;;;;;5087833;28;20417;-67
2022/03/24 04:10:30;;;;;;;78.93;48.67;;;11.60;85.50;;;;;;5090663;28;20413;-68
2022/03/24 04:12:57;;;;;;;74.60;48.45;;;11.60;85.50;;;;;;5089483;28;20432;-66
2022/03/24 04:15:23;;;;;;;72.43;48.20;;;11.50;85.90;;;;;;5088979;28;20418;-67
2022/03/24 04:17:50;;;;;;;80.03;48.90;;;11.50;86.10;;;;;;5088351;28;20486;-67
2022/03/24 04:20:20;;;;;;;70.55;47.33;;;11.50;85.70;;;;;;5088176;28;20477;-67
2022/03/24 04:22:54;;;;;;;72.35;47.65;;;11.50;85.20;;;;;;5087935;28;20984;-64
2022/03/24 04:25:21;;;;;;;69.60;47.03;;;11.50;85.10;;;;;;5090270;28;20883;-66
2022/03/24 04:27:48;;;;;;;67.93;47.63;;;11.40;85.10;;;;;;5087228;28;20453;-65
2022/03/24 04:30:14;;;;;;;71.82;47.70;;;11.40;85.70;;;;;;5070798;28;20455;-66
2022/03/24 04:32:41;;;;;;;73.00;46.83;;;11.40;86.00;;;;;;5065113;28;20556;-66
2022/03/24 04:35:11;;;;;;;73.93;47.33;;;11.40;85.60;;;;;;5086501;28;20425;-67
2022/03/24 04:37:37;;;;;;;72.57;47.10;;;11.40;85.60;;;;;;5086129;28;20483;-67
2022/03/24 04:40:06;;;;;;;74.47;48.97;;;11.30;85.50;;;;;;5086836;28;20755;-68
2022/03/24 04:42:33;;;;;;;79.85;49.20;;;11.30;85.50;;;;;;5070255;28;20410;-67
2022/03/24 04:44:59;;;;;;;79.18;48.45;;;11.30;86.10;;;;;;5071396;28;20443;-71
2022/03/24 04:47:26;;;;;;;83.22;50.08;;;11.20;85.00;;;;;;5084493;28;20413;-69
2022/03/24 04:49:52;;;;;;;77.97;47.50;;;11.20;85.30;;;;;;5087188;28;20422;-71
2022/03/24 04:52:19;;;;;;;78.20;47.83;;;11.20;85.70;;;;;;5085863;28;20414;-71
2022/03/24 04:54:45;;;;;;;72.85;48.20;;;11.10;86.40;;;;;;5071383;28;20413;-71
2022/03/24 04:57:12;;;;;;;77.40;48.97;;;11.10;86.90;;;;;;5067165;28;20416;-70
2022/03/24 04:59:38;;;;;;;73.40;48.33;;;11.10;87.20;;;;;;5088970;28;20404;-71
2022/03/24 05:02:04;;;;;;;74.70;47.23;;;11.00;87.20;;;;;;5087428;28;20394;-69
2022/03/24 05:04:29;;;;;;;73.78;47.00;;;11.00;87.20;;;;;;5066788;28;20531;-70
2022/03/24 05:06:55;;;;;;;72.53;47.63;;;11.00;87.10;;;;;;5084465;28;20441;-69
2022/03/24 05:09:21;;;;;;;77.55;48.60;;;11.00;87.40;;;;;;5085210;28;20424;-71
2022/03/24 05:11:47;;;;;;;76.35;48.50;;;11.00;87.10;;;;;;5084188;28;20439;-72
2022/03/24 05:14:13;;;;;;;75.50;47.83;;;10.90;87.60;;;;;;5066255;28;20489;-69
2022/03/24 05:16:39;;;;;;;77.40;48.90;;;10.90;87.50;;;;;;5085554;28;20421;-71
2022/03/24 05:19:05;;;;;;;77.90;48.50;;;10.80;87.90;;;;;;5087167;28;20393;-70
2022/03/24 05:21:32;;;;;;;74.82;47.05;;;10.90;87.80;;;;;;5085707;28;20448;-71
2022/03/24 05:23:59;;;;;;;79.72;47.40;;;10.90;87.20;;;;;;5064587;28;20478;-70
2022/03/24 05:26:26;;;;;;;73.38;47.17;;;10.90;87.00;;;;;;5079836;28;20471;-69
2022/03/24 05:28:52;;;;;;;72.45;47.83;;;10.90;87.00;;;;;;5089026;28;20405;-70
2022/03/24 05:31:18;;;;;;;73.38;48.35;;;10.80;87.50;;;;;;5052127;28;20504;-70
2022/03/24 05:33:45;;;;;;;75.07;49.65;;;10.80;87.60;;;;;;5070349;28;20519;-70
2022/03/24 05:36:11;;;;;;;75.43;49.08;;;10.80;88.10;;;;;;5085883;28;20418;-70
2022/03/24 05:38:37;;;;;;;78.70;49.30;;;10.80;89.00;;;;;;5087878;28;20398;-70
2022/03/24 05:41:04;;;;;;;79.82;48.55;;;10.80;88.60;;;;;;5085261;28;20421;-70
2022/03/24 05:43:31;;;;;;;78.47;50.97;;;10.80;89.20;;;;;;5068184;28;20752;-70
2022/03/24 05:45:57;;;;;;;81.53;51.92;;;10.80;89.70;;;;;;5066006;28;20487;-70
2022/03/24 05:48:23;;;;;;;78.32;50.22;;;10.80;89.60;;;;;;5062222;28;20469;-74
2022/03/24 05:51:05;;;;;;;84.95;50.10;;;10.80;89.70;;;;;;5066224;28;21166;-69
2022/03/24 05:53:32;;;;;;;80.00;50.53;;;10.80;89.70;;;;;;5083942;28;20408;-67
2022/03/24 05:55:58;;;;;;;87.30;53.22;;;10.80;89.20;;;;;;5068155;28;20425;-71
2022/03/24 05:58:24;;;;;;;83.87;52.27;;;10.80;90.10;;;;;;5084875;28;20413;-67
2022/03/24 06:00:49;;;;;;;87.97;52.10;;;10.80;90.20;;;;;;5086386;28;20412;-67
2022/03/24 06:03:15;;;;;;;84.68;52.50;;;10.80;90.00;;;;;;5067541;28;20390;-67
2022/03/24 06:05:43;;;;;;;79.95;51.42;;;10.70;90.00;;;;;;5088045;28;20410;-68
2022/03/24 06:08:09;;;;;;;83.80;51.97;;;10.70;90.10;;;;;;5065390;28;20471;-68
2022/03/24 06:10:34;;;;;;;84.65;51.83;;;10.80;90.40;;;;;;5086408;28;20409;-67
2022/03/24 06:13:00;;;;;;;86.20;54.33;;;10.80;90.20;;;;;;5053259;28;20515;-67
2022/03/24 06:15:26;;;;;;;91.77;55.77;;;10.80;90.50;;;;;;5069188;28;20390;-64
2022/03/24 06:17:51;;;;;;;85.53;54.22;;;10.90;91.50;;;;;;5067636;28;20778;-64
2022/03/24 06:20:17;;;;;;;85.37;54.17;;;10.90;91.90;;;;;;5086323;28;20497;-65
2022/03/24 06:22:47;;;;;;;90.13;55.53;;;10.90;91.50;;;;;;5066198;28;20915;-67
2022/03/24 06:25:13;;;;;;;83.38;55.28;;;10.90;91.50;;;;;;5068271;28;20436;-67
2022/03/24 06:27:39;;;;;;;90.60;57.00;;;10.90;91.60;;;;;;5062345;28;20927;-73
2022/03/24 06:30:05;;;;;;;86.70;56.47;;;11.00;91.50;;;;;;5077876;28;20422;-68
2022/03/24 06:32:31;;;;;;;89.20;57.85;;;11.00;91.70;;;;;;5082768;28;20996;-69
2022/03/24 06:34:58;;;;;;;91.57;58.15;;;11.00;91.70;;;;;;5069545;28;20458;-71
2022/03/24 06:37:23;;;;;;;94.15;57.65;;;11.10;91.80;;;;;;5083315;28;20430;-72
2022/03/24 06:39:49;;;;;;;93.55;59.72;;;11.10;92.10;;;;;;5066448;28;20413;-69
2022/03/24 06:42:15;;;;;;;89.00;58.10;;;11.10;92.20;;;;;;5085122;28;20418;-69
2022/03/24 06:44:40;;;;;;;92.57;59.22;;;11.20;92.00;;;;;;5064048;28;20478;-73
2022/03/24 06:47:06;;;;;;;97.10;59.77;;;11.20;92.00;;;;;;5068374;28;20463;-70
2022/03/24 06:49:32;;;;;;;97.75;59.70;;;11.20;92.30;;;;;;5069580;28;20416;-74
2022/03/24 06:51:58;;;;;;;95.47;59.93;;;11.30;92.50;;;;;;5067460;28;20524;-71
2022/03/24 06:54:23;;;;;;;92.82;59.00;;;11.30;92.60;;;;;;5086605;28;20418;-69
2022/03/24 06:56:49;;;;;;;91.80;59.73;;;11.40;92.80;;;;;;5067583;28;20417;-68
2022/03/24 06:59:15;;;;;;;94.70;61.08;;;11.40;92.60;;;;;;5068424;28;20924;-70
2022/03/24 07:01:42;;;;;;;95.80;62.78;;;11.50;92.50;;;;;;5080850;28;20460;-69
2022/03/24 07:04:08;;;;;;;101.93;65.13;;;11.60;92.40;;;;;;5087348;28;20397;-70
2022/03/24 07:06:34;;;;;;;96.90;62.63;;;11.60;92.60;;;;;;5084442;28;20912;-68
2022/03/24 07:08:59;;;;;;;99.43;62.57;;;11.70;92.70;;;;;;5066655;28;21040;-68
2022/03/24 07:11:25;;;;;;;95.70;62.15;;;11.70;92.80;;;;;;5067823;28;20575;-66
2022/03/24 07:13:51;;;;;;;95.25;63.65;;;11.80;92.70;;;;;;5086408;28;20402;-69
2022/03/24 07:16:17;;;;;;;101.87;61.00;;;11.90;92.80;;;;;;5084040;28;20513;-67
2022/03/24 07:18:43;;;;;;;89.70;61.83;;;11.90;93.00;;;;;;5084180;28;20602;-66
2022/03/24 07:21:10;;;;;;;88.82;59.60;;;12.00;92.70;;;;;;5066649;28;20487;-69
2022/03/24 07:23:36;;;;;;;88.40;58.95;;;12.10;92.80;;;;;;5083276;28;20548;-67
2022/03/24 07:26:02;;;;;;;99.47;61.17;;;12.20;92.80;;;;;;5085664;28;20554;-70
2022/03/24 07:28:27;;;;;;;91.00;61.90;;;12.20;92.80;;;;;;5084486;28;21095;-69
2022/03/24 07:30:53;;;;;;;101.13;64.60;;;12.30;92.70;;;;;;5084354;28;20493;-69
2022/03/24 07:33:20;;;;;;;98.97;64.57;;;12.40;92.40;;;;;;5082468;28;20417;-66
2022/03/24 07:35:46;;;;;;;98.18;66.35;;;12.40;92.30;;;;;;5090572;28;20898;-67
2022/03/24 07:38:13;;;;;;;95.55;64.15;;;12.50;92.20;;;;;;5089610;28;20498;-67
2022/03/24 07:40:38;;;;;;;93.37;63.00;;;12.60;92.40;;;;;;5089221;28;20421;-64
2022/03/24 07:43:05;;;;;;;89.22;60.40;;;12.70;92.30;;;;;;5087111;28;20439;-68
2022/03/24 07:45:37;;;;;;;94.43;61.65;;;12.70;92.20;;;;;;5055804;28;20417;-68
2022/03/24 07:48:06;;;;;;;95.28;64.85;;;12.80;92.00;;;;;;5053468;28;20420;-67
2022/03/24 07:50:32;;;;;;;97.88;63.70;;;13.00;91.70;;;;;;5086476;28;20410;-68
2022/03/24 07:53:13;;;;;;;99.82;65.07;;;13.00;91.30;;;;;;5088485;28;20448;-70
2022/03/24 07:55:42;;;;;;;96.55;63.03;;;13.10;91.10;;;;;;5088706;28;20449;-69
2022/03/24 07:58:09;;;;;;;87.47;56.75;;;13.20;91.00;;;;;;5069212;28;20404;-67
2022/03/24 08:00:35;;;;;;;93.32;62.50;;;13.30;90.50;;;;;;5090630;28;20397;-70
2022/03/24 08:03:01;;;;;;;91.10;60.90;;;13.40;90.10;;;;;;5054847;28;20481;-69
2022/03/24 08:05:26;;;;;;;84.80;55.42;;;13.50;90.20;;;;;;5088910;28;20812;-68
2022/03/24 08:07:56;;;;;;;69.50;48.47;;;13.60;90.10;;;;;;5088013;28;20413;-69
2022/03/24 08:10:22;;;;;;;61.30;43.72;;;13.70;89.20;;;;;;5089460;28;20417;-74
2022/03/24 08:12:48;;;;;;;83.43;56.88;;;13.80;89.20;;;;;;5085696;28;20907;-70
2022/03/24 08:15:14;;;;;;;82.65;54.30;;;13.90;87.50;;;;;;5071089;28;20406;-70
2022/03/24 08:17:40;;;;;;;84.22;53.58;;;14.00;87.20;;;;;;5066636;28;21121;-68
2022/03/24 08:20:06;;;;;;;79.50;55.97;;;14.10;86.70;;;;;;5069549;28;20493;-66
2022/03/24 08:22:32;;;;;;;85.22;54.67;;;14.20;86.40;;;;;;5066748;28;20932;-68
2022/03/24 08:24:58;;;;;;;86.67;56.60;;;14.30;85.20;;;;;;5055644;28;20402;-68
2022/03/24 08:27:24;;;;;;;84.53;54.65;;;14.40;85.00;;;;;;5088231;28;20416;-65
2022/03/24 08:29:50;;;;;;;77.35;53.15;;;14.50;85.10;;;;;;5089649;28;20410;-69
2022/03/24 08:32:16;;;;;;;76.60;52.73;;;14.60;84.60;;;;;;5070334;28;20413;-71
2022/03/24 08:34:41;;;;;;;63.67;46.45;;;14.80;84.40;;;;;;5086858;28;20417;-67
2022/03/24 08:37:08;;;;;;;86.10;52.60;;;14.90;84.80;;;;;;5086802;28;20425;-69
2022/03/24 08:39:33;;;;;;;81.72;54.22;;;15.00;83.90;;;;;;5071525;28;20751;-70
2022/03/24 08:41:59;;;;;;;78.40;51.20;;;15.10;82.80;;;;;;5087160;28;20421;-69
2022/03/24 08:44:25;;;;;;;65.88;46.13;;;15.30;81.90;;;;;;5086904;28;20848;-65
2022/03/24 08:46:51;;;;;;;72.55;48.65;;;15.80;81.00;;;;;;5071155;28;20509;-70
2022/03/24 08:49:18;;;;;;;73.85;43.60;;;16.30;78.00;;;;;;5091034;28;20260;-68
2022/03/24 08:51:45;;;;;;;;;;;16.20;80.00;;;;;;5070334;28;20020;-74
2022/03/24 08:54:10;;;;;;;;;;;16.10;80.90;;;;;;5091833;28;19953;-68
2022/03/24 08:56:36;;;;;;;;;;;16.10;82.10;;;;;;5088926;28;19911;-69
2022/03/24 08:59:02;;;;;;;65.15;43.05;;;16.20;83.00;;;;;;5070702;28;20188;-69
2022/03/24 09:01:28;;;;;;;60.38;40.15;;;16.40;82.90;;;;;;5073292;28;20192;-69
2022/03/24 09:03:54;;;;;;;52.30;36.85;;;16.80;80.40;;;;;;5070830;28;20217;-68
2022/03/24 09:06:21;;;;;;;56.47;36.60;;;17.00;78.10;;;;;;5072345;28;20609;-68
2022/03/24 09:08:47;;;;;;;57.17;37.80;;;17.30;75.80;;;;;;5089463;28;20200;-67
2022/03/24 09:11:13;;;;;;;53.38;38.10;;;17.60;73.30;;;;;;5073220;28;20280;-69
2022/03/24 09:13:38;;;;;;;54.13;35.55;;;17.80;71.00;;;;;;5087043;28;20182;-66
2022/03/24 09:16:05;;;;;;;;;;;18.00;67.80;;;;;;5084880;28;20034;-70
2022/03/24 09:18:31;;;;;;;;;;;18.30;69.20;;;;;;5091306;28;19912;-69
2022/03/24 09:20:56;;;;;;;;;;;18.90;70.70;;;;;;5087876;28;20361;-69
2022/03/24 09:23:24;;;;;;;;;;;19.60;71.00;;;;;;5065732;28;19961;-70
2022/03/24 09:25:50;;;;;;;;;;;20.30;71.00;;;;;;5069572;28;20007;-68
2022/03/24 09:28:15;;;;;;;;;;;21.10;70.50;;;;;;5071486;28;20314;-68
2022/03/24 09:30:42;;;;;;;;;;;21.80;70.50;;;;;;5068842;28;19912;-70
2022/03/24 09:33:08;;;;;;;;;;;22.50;69.30;;;;;;5071136;28;19948;-68
2022/03/24 09:35:34;;;;;;;;;;;23.20;69.20;;;;;;5069222;28;19923;-69
2022/03/24 09:38:00;;;;;;;;;;;23.70;68.50;;;;;;5068327;28;19965;-69
2022/03/24 09:40:26;;;;;;;;;;;24.30;66.30;;;;;;5067496;28;19913;-69
2022/03/24 09:42:51;;;;;;;;;;;24.80;65.40;;;;;;5070641;28;19916;-70
2022/03/24 09:45:17;;;;;;;;;;;25.40;66.60;;;;;;5069179;28;19913;-70
2022/03/24 09:47:43;;;;;;;;;;;26.00;66.00;;;;;;5067226;28;19916;-72
2022/03/24 09:50:09;;;;;;;;;;;26.60;63.30;;;;;;5068286;28;19969;-70
2022/03/24 09:52:35;;;;;;;;;;;27.20;62.80;;;;;;5070932;28;20014;-69
2022/03/24 09:55:01;;;;;;;;;;;27.80;61.90;;;;;;5068395;28;20417;-70
2022/03/24 09:57:27;;;;;;;;;;;28.30;60.50;;;;;;5063948;28;20293;-70
2022/03/24 09:59:53;;;;;;;;;;;28.70;59.30;;;;;;5069454;28;20399;-70
2022/03/24 10:02:19;;;;;;;;;;;29.10;56.90;;;;;;5067705;28;19912;-69
2022/03/24 10:04:49;;;;;;;25.17;18.95;;;29.60;58.80;;;;;;5070242;28;20187;-68
2022/03/24 10:07:18;;;;;;;24.70;19.50;;;30.40;49.90;;;;;;5066130;28;20776;-69
2022/03/24 10:09:46;;;;;;;26.48;21.05;;;34.20;23.10;;;;;;5067209;28;20411;-70
2022/03/24 10:12:26;;;;;;;27.37;19.57;;;35.80;20.00;;;;;;5063165;28;20415;-70
2022/03/24 10:15:08;;;;;;;29.90;20.70;;;36.80;20.30;;;;;;5065295;28;20407;-69
2022/03/24 10:17:35;;;;;;;26.43;20.20;;;37.50;18.00;;;;;;5067676;28;20510;-69
2022/03/24 10:20:05;;;;;;;27.88;20.38;;;37.90;18.50;;;;;;5064544;28;20447;-68
2022/03/24 10:22:35;;;;;;;31.67;21.03;;;38.30;17.90;;;;;;5070032;28;21344;-70
2022/03/24 10:25:20;;;;;;;28.73;23.13;;;38.60;17.60;;;;;;5084444;28;20962;-69
2022/03/24 10:28:09;;;;;;;29.08;23.35;;;38.80;17.80;;;;;;5086313;28;20487;-71
2022/03/24 10:30:57;;;;;;;30.40;23.10;;;39.00;18.10;;;;;;5086158;28;20900;-67
2022/03/24 10:33:45;;;;;;;32.90;24.48;;;39.30;18.10;;;;;;5088804;28;20463;-70
2022/03/24 10:36:18;;;;;;;31.30;24.60;;;39.40;17.80;;;;;;5084807;28;20424;-69
2022/03/24 10:38:46;;;;;;;35.42;25.75;;;39.40;18.00;;;;;;5067122;28;20471;-69
2022/03/24 10:41:16;;;;;;;31.27;24.33;;;39.40;17.80;;;;;;5052455;28;20428;-70
2022/03/24 10:43:43;;;;;;;35.90;25.40;;;39.50;18.10;;;;;;5069767;28;20416;-71
2022/03/24 10:46:26;;;;;;;31.80;23.50;;;39.80;17.60;;;;;;5084832;28;20421;-69
2022/03/24 10:48:54;;;;;;;34.27;24.70;;;40.10;17.50;;;;;;5088623;28;20402;-69
2022/03/24 10:51:25;;;;;;;30.70;23.38;;;40.30;17.40;;;;;;5084847;28;20408;-71
2022/03/24 10:53:53;;;;;;;32.75;22.92;;;40.20;17.20;;;;;;5085457;28;20452;-69
2022/03/24 10:56:30;;;;;;;31.13;22.60;;;39.70;17.20;;;;;;5065716;28;20500;-71
2022/03/24 10:59:01;;;;;;;32.63;22.80;;;39.30;17.80;;;;;;5069467;28;20429;-68
2022/03/24 11:01:28;;;;;;;33.28;22.70;;;38.80;18.60;;;;;;5082787;28;20414;-70
2022/03/24 11:03:55;;;;;;;28.77;22.10;;;38.50;18.80;;;;;;5087274;28;20200;-70
2022/03/24 11:06:27;;;;;;;33.58;21.08;;;37.00;20.20;;;;;;5086491;28;20266;-74
2022/03/24 11:08:53;;;;;;;;;;;36.00;21.70;;;;;;5071703;28;20806;-71
2022/03/24 11:11:20;;;;;;;32.45;25.38;;;34.80;22.90;;;;;;5091634;28;20402;-72
2022/03/24 11:13:49;;;;;;;32.63;24.05;;;35.20;21.90;;;;;;5090533;28;20437;-71
2022/03/24 11:16:19;;;;;;;30.67;21.25;;;35.20;21.90;;;;;;5087695;28;20417;-71
2022/03/24 11:18:46;;;;;;;38.30;20.83;;;34.90;22.20;;;;;;5090721;28;20181;-73
2022/03/24 11:21:27;;;;;;;33.60;20.65;;;33.60;23.30;;;;;;5075067;28;20557;-69
2022/03/24 11:23:54;;;;;;;33.92;21.05;;;32.70;24.20;;;;;;5073640;28;20236;-71
2022/03/24 11:26:21;;;;;;;29.90;19.40;;;32.20;25.20;;;;;;5092646;28;20538;-73
2022/03/24 11:28:47;;;;;;;38.22;21.08;;;31.90;25.80;;;;;;5087903;28;20203;-68
2022/03/24 11:31:15;;;;;;;32.13;20.95;;;31.70;25.90;;;;;;5073738;28;20578;-70
2022/03/24 11:33:50;;;;;;;28.80;18.77;;;31.60;25.90;;;;;;5069158;28;20210;-71
2022/03/24 11:36:20;;;;;;;36.22;20.02;;;31.60;26.10;;;;;;5087978;28;20450;-67
2022/03/24 11:38:49;;;;;;;30.83;20.35;;;33.40;24.50;;;;;;5083148;28;20420;-68
2022/03/24 11:41:36;;;;;;;30.92;18.63;;;34.00;24.20;;;;;;5066544;28;20645;-67
2022/03/24 11:44:12;;;;;;;31.55;19.27;;;32.80;25.30;;;;;;5071332;28;20696;-71
2022/03/24 11:47:01;;;;;;;34.05;19.45;;;32.00;25.90;;;;;;5086128;28;20234;-70
2022/03/24 11:49:29;;;;;;;33.05;20.65;;;31.60;26.60;;;;;;5087359;28;20661;-72
2022/03/24 11:51:58;;;;;;;34.28;20.15;;;31.20;26.80;;;;;;5054101;28;20174;-70
2022/03/24 11:54:35;;;;;;;34.40;20.35;;;31.00;27.10;;;;;;5063134;28;20185;-70
2022/03/24 11:57:27;;;;;;;35.65;20.77;;;30.90;27.10;;;;;;5084013;28;20188;-70
2022/03/24 12:00:14;;;;;;;36.88;20.35;;;30.70;27.60;;;;;;5083233;28;20216;-70
2022/03/24 12:02:43;;;;;;;38.80;21.33;;;30.70;27.60;;;;;;5070144;28;20264;-70
2022/03/24 12:05:10;;;;;;;32.50;21.35;;;30.90;27.70;;;;;;5085338;28;20273;-70
2022/03/24 12:07:36;;;;;;;30.08;20.88;;;30.90;27.60;;;;;;5083349;28;20217;-69
2022/03/24 12:10:08;;;;;;;31.40;20.35;;;31.00;27.50;;;;;;5086416;28;20402;-69
2022/03/24 12:12:34;;;;;;;;;;;33.30;25.50;;;;;;5070330;28;20028;-68
2022/03/24 12:15:09;;;;;;;36.72;23.83;;;32.10;26.30;;;;;;5081908;28;20399;-68
2022/03/24 12:17:35;;;;;;;31.73;20.88;;;34.00;24.00;;;;;;5069375;28;20410;-70
2022/03/24 12:20:02;;;;;;;;;;;34.80;24.00;;;;;;5052324;28;20502;-70
2022/03/24 12:22:35;;;;;;;;;;;33.20;25.10;;;;;;5087529;28;20042;-68
2022/03/24 12:25:02;;;;;;;;;;;32.20;26.30;;;;;;5071411;28;20003;-68
2022/03/24 12:27:28;;;;;;;;;;;31.40;27.10;;;;;;5073667;28;19924;-72
2022/03/24 12:30:11;;;;;;;38.42;23.58;;;31.00;27.70;;;;;;5081871;28;20188;-69
2022/03/24 12:32:37;;;;;;;38.05;25.25;;;31.20;27.30;;;;;;5064508;28;20414;-70
2022/03/24 12:35:04;;;;;;;36.42;23.45;;;33.10;25.10;;;;;;5082078;28;20746;-70
2022/03/24 12:37:32;;;;;;;38.50;24.25;;;33.80;25.50;;;;;;5069568;28;20181;-70
2022/03/24 12:40:08;;;;;;;43.97;25.90;;;32.60;26.00;;;;;;5072023;28;20192;-69
2022/03/24 12:42:51;;;;;;;35.78;23.27;;;31.80;26.50;;;;;;5069141;28;20213;-71
2022/03/24 12:45:25;;;;;;;35.35;22.67;;;31.30;27.30;;;;;;5089751;28;20231;-71